Time;durP1;ratioP1;P1;durP2;ratioP2;P2;SDS_P1;SDS_P2;PMS_P1;PMS_P2;Temp;Humidity;BMP_temperature;BMP_pressure;BME280_temperature;BME280_humidity;BME280_pressure;Samples;Min_cycle;Max_cycle;Signal;HPM_P1;HPM_P2
2022/07/22 00:00:09;;;;;;;9.98;4.25;;;;;;;;;;5091836;28;20043;-75
2022/07/22 00:02:35;;;;;;;8.85;3.80;;;;;;;;;;5010933;28;20103;-73
2022/07/22 00:05:01;;;;;;;9.82;4.00;;;;;;;;;;5011328;28;20042;-74
2022/07/22 00:07:27;;;;;;;12.30;4.32;;;;;;;;;;5011798;28;20042;-73
2022/07/22 00:09:53;;;;;;;7.40;3.47;;;;;;;;;;5012878;28;20048;-73
2022/07/22 00:12:20;;;;;;;10.20;3.67;;;;;;;;;;5011109;28;20112;-73
2022/07/22 00:14:46;;;;;;;7.32;3.80;;;;;;;;;;5009374;28;20407;-74
2022/07/22 00:17:12;;;;;;;9.65;3.67;;;;;;;;;;5010781;28;20630;-74
2022/07/22 00:19:38;;;;;;;10.65;3.90;;;;;;;;;;5012915;28;20112;-73
2022/07/22 00:22:04;;;;;;;5.15;3.78;;;;;;;;;;5005456;28;20018;-73
2022/07/22 00:24:30;;;;;;;9.35;4.35;;;;;;;;;;4997893;28;20065;-76
2022/07/22 00:29:53;;;;;;;10.82;4.13;;;;;;;;;;4949770;28;20130;-71
2022/07/22 00:32:19;;;;;;;6.97;3.58;;;;;;;;;;4953665;28;20028;-74
2022/07/22 00:34:45;;;;;;;11.27;4.07;;;;;;;;;;4952601;29;20056;-76
2022/07/22 00:37:11;;;;;;;12.32;4.13;;;;;;;;;;4994384;28;20066;-73
2022/07/22 00:39:43;;;;;;;6.97;4.00;;;;;;;;;;5013642;28;20042;-74
2022/07/22 00:42:21;;;;;;;11.48;3.75;;;;;;;;;;4991724;28;20042;-73
2022/07/22 00:44:47;;;;;;;8.20;4.07;;;;;;;;;;5006134;28;20045;-72
2022/07/22 00:47:13;;;;;;;9.13;4.13;;;;;;;;;;5021597;28;20034;-71
2022/07/22 00:49:40;;;;;;;26.27;4.82;;;;;;;;;;5009122;28;20033;-72
2022/07/22 00:52:06;;;;;;;10.23;3.85;;;;;;;;;;5011114;28;20064;-73
2022/07/22 00:54:32;;;;;;;8.43;4.10;;;;;;;;;;5019621;28;20041;-74
2022/07/22 00:57:06;;;;;;;7.55;4.00;;;;;;;;;;5014518;28;20018;-75
2022/07/22 00:59:32;;;;;;;5.05;3.63;;;;;;;;;;4997322;28;20120;-76
2022/07/22 01:01:58;;;;;;;9.07;4.18;;;;;;;;;;5010081;28;20546;-72
2022/07/22 01:04:25;;;;;;;7.03;4.10;;;;;;;;;;5013526;28;20069;-75
2022/07/22 01:06:51;;;;;;;9.88;3.83;;;;;;;;;;5083274;28;20039;-72
2022/07/22 01:09:43;;;;;;;12.23;4.28;;;;;;;;;;5108539;28;20069;-76
2022/07/22 01:12:10;;;;;;;8.10;3.67;;;;;;;;;;5111164;28;20520;-72
2022/07/22 01:14:36;;;;;;;9.15;4.00;;;;;;;;;;5094179;28;20051;-72
2022/07/22 01:17:02;;;;;;;9.50;3.88;;;;;;;;;;5105738;28;20024;-73
2022/07/22 01:19:57;;;;;;;8.75;4.05;;;;;;;;;;5090037;28;20034;-77
2022/07/22 01:22:23;;;;;;;7.13;4.00;;;;;;;;;;5122806;28;20024;-71
2022/07/22 01:25:27;;;;;;;10.07;4.05;;;;;;;;;;5099984;28;20149;-74
2022/07/22 01:27:54;;;;;;;11.25;4.20;;;;;;;;;;5112644;28;22075;-75
2022/07/22 01:30:20;;;;;;;10.20;3.90;;;;;;;;;;5103609;28;20038;-74
2022/07/22 01:32:46;;;;;;;8.80;4.10;;;;;;;;;;5106011;28;20020;-75
2022/07/22 01:35:12;;;;;;;8.02;4.65;;;;;;;;;;5112675;28;20102;-75
2022/07/22 01:38:02;;;;;;;10.15;4.43;;;;;;;;;;5112910;28;20054;-73
2022/07/22 01:40:39;;;;;;;6.25;3.90;;;;;;;;;;5108740;28;20032;-71
2022/07/22 01:43:05;;;;;;;9.95;4.72;;;;;;;;;;5111502;28;20019;-75
2022/07/22 01:45:31;;;;;;;7.35;4.00;;;;;;;;;;5094560;28;20022;-73
2022/07/22 01:47:58;;;;;;;9.52;4.10;;;;;;;;;;5103072;28;20102;-71
2022/07/22 01:50:24;;;;;;;11.00;4.78;;;;;;;;;;5112901;28;20372;-72
2022/07/22 01:52:51;;;;;;;10.50;4.38;;;;;;;;;;5115592;28;20023;-74
2022/07/22 01:58:19;;;;;;;8.88;4.60;;;;;;;;;;5028140;28;20049;-74
2022/07/22 02:00:45;;;;;;;8.30;4.00;;;;;;;;;;5031808;28;20083;-74
2022/07/22 02:03:11;;;;;;;7.53;4.20;;;;;;;;;;5030885;28;20043;-74
2022/07/22 02:05:38;;;;;;;11.40;4.15;;;;;;;;;;5013964;28;20026;-73
2022/07/22 02:08:05;;;;;;;10.55;4.22;;;;;;;;;;5022029;28;20040;-72
2022/07/22 02:10:31;;;;;;;8.60;4.35;;;;;;;;;;5031640;28;20041;-71
2022/07/22 02:12:58;;;;;;;10.77;4.40;;;;;;;;;;5028090;28;20139;-71
2022/07/22 02:15:24;;;;;;;13.27;4.35;;;;;;;;;;5034383;28;20356;-72
2022/07/22 02:17:50;;;;;;;8.57;4.18;;;;;;;;;;5037405;28;20041;-72
2022/07/22 02:20:16;;;;;;;10.23;4.32;;;;;;;;;;5034359;28;20025;-72
2022/07/22 02:22:42;;;;;;;8.07;4.38;;;;;;;;;;5035211;28;20022;-72
2022/07/22 02:25:08;;;;;;;7.50;4.22;;;;;;;;;;5034783;28;20044;-71
2022/07/22 02:27:35;;;;;;;9.38;4.13;;;;;;;;;;5039915;28;20116;-73
2022/07/22 02:30:01;;;;;;;7.97;4.53;;;;;;;;;;5038844;28;20538;-73
2022/07/22 02:32:27;;;;;;;9.23;4.18;;;;;;;;;;5034658;28;20117;-73
2022/07/22 02:34:53;;;;;;;8.70;4.47;;;;;;;;;;5034602;28;20028;-74
2022/07/22 02:37:19;;;;;;;8.05;4.70;;;;;;;;;;5034806;28;20022;-72
2022/07/22 02:39:45;;;;;;;13.32;4.50;;;;;;;;;;5041798;28;20024;-72
2022/07/22 02:42:11;;;;;;;9.70;4.45;;;;;;;;;;5038599;28;20056;-74
2022/07/22 02:44:37;;;;;;;9.27;4.60;;;;;;;;;;5033056;28;20033;-72
2022/07/22 02:47:03;;;;;;;10.50;4.45;;;;;;;;;;5039120;28;20551;-74
2022/07/22 02:49:29;;;;;;;8.23;4.47;;;;;;;;;;5032920;28;20479;-71
2022/07/22 02:51:56;;;;;;;11.20;4.50;;;;;;;;;;5035226;28;20033;-72
2022/07/22 02:54:22;;;;;;;9.20;4.50;;;;;;;;;;5033930;28;20013;-71
2022/07/22 02:56:48;;;;;;;12.23;4.40;;;;;;;;;;5041762;28;20059;-72
2022/07/22 02:59:14;;;;;;;7.43;3.80;;;;;;;;;;5054123;28;20040;-72
2022/07/22 03:01:40;;;;;;;11.13;4.82;;;;;;;;;;5045964;28;20498;-71
2022/07/22 03:04:06;;;;;;;10.38;4.30;;;;;;;;;;5029643;28;20056;-72
2022/07/22 03:06:32;;;;;;;11.02;4.68;;;;;;;;;;5028560;28;20033;-73
2022/07/22 03:08:59;;;;;;;8.27;4.70;;;;;;;;;;5054260;28;20079;-75
2022/07/22 03:11:25;;;;;;;12.18;4.45;;;;;;;;;;5038822;28;20065;-72
2022/07/22 03:13:51;;;;;;;8.40;4.43;;;;;;;;;;5053964;28;20040;-74
2022/07/22 03:16:17;;;;;;;7.72;4.60;;;;;;;;;;5035833;28;20033;-75
2022/07/22 03:18:43;;;;;;;6.30;4.05;;;;;;;;;;5053685;28;20033;-73
2022/07/22 03:21:09;;;;;;;8.75;4.10;;;;;;;;;;5051733;28;20020;-73
2022/07/22 03:23:35;;;;;;;8.73;3.97;;;;;;;;;;5054348;28;20031;-73
2022/07/22 03:26:01;;;;;;;9.68;4.65;;;;;;;;;;5054380;28;20028;-73
2022/07/22 03:28:27;;;;;;;11.82;4.47;;;;;;;;;;5056193;28;20033;-74
2022/07/22 03:30:54;;;;;;;9.75;4.85;;;;;;;;;;5058561;28;20017;-73
2022/07/22 03:33:20;;;;;;;12.77;5.10;;;;;;;;;;5048658;28;20048;-74
2022/07/22 03:35:46;;;;;;;10.30;5.00;;;;;;;;;;5053043;28;20119;-75
2022/07/22 03:38:12;;;;;;;11.13;5.35;;;;;;;;;;5057320;28;20115;-76
2022/07/22 03:40:38;;;;;;;13.60;5.00;;;;;;;;;;5053637;28;20143;-74
2022/07/22 03:43:04;;;;;;;12.88;5.60;;;;;;;;;;5051791;28;20158;-73
2022/07/22 03:45:30;;;;;;;11.52;4.97;;;;;;;;;;5052962;28;20021;-72
2022/07/22 03:47:57;;;;;;;7.93;4.88;;;;;;;;;;5053612;28;20021;-74
2022/07/22 03:50:24;;;;;;;21.30;7.65;;;;;;;;;;5053078;28;20534;-72
2022/07/22 03:52:50;;;;;;;17.63;6.32;;;;;;;;;;5051574;28;20032;-72
2022/07/22 03:55:16;;;;;;;18.90;6.25;;;;;;;;;;5057338;28;20025;-73
2022/07/22 03:57:42;;;;;;;14.35;5.50;;;;;;;;;;5052576;28;20057;-73
2022/07/22 04:00:08;;;;;;;12.85;5.75;;;;;;;;;;5051312;28;20056;-73
2022/07/22 04:02:34;;;;;;;9.95;5.18;;;;;;;;;;5052504;28;20021;-76
2022/07/22 04:05:01;;;;;;;14.63;5.55;;;;;;;;;;5049217;28;20252;-73
2022/07/22 04:07:27;;;;;;;11.85;4.53;;;;;;;;;;5052770;28;20048;-71
2022/07/22 04:10:04;;;;;;;15.23;5.38;;;;;;;;;;5053040;28;20555;-74
2022/07/22 04:12:32;;;;;;;19.02;5.18;;;;;;;;;;5051580;28;20071;-71
2022/07/22 04:14:58;;;;;;;20.90;5.13;;;;;;;;;;5051759;28;20057;-72
2022/07/22 04:17:24;;;;;;;16.10;5.05;;;;;;;;;;5048984;28;20422;-71
2022/07/22 04:19:50;;;;;;;11.05;5.03;;;;;;;;;;5052530;28;20025;-73
2022/07/22 04:22:16;;;;;;;17.55;6.25;;;;;;;;;;5052339;28;20021;-73
2022/07/22 04:24:42;;;;;;;14.05;5.45;;;;;;;;;;5052711;28;20074;-71
2022/07/22 04:27:08;;;;;;;19.33;6.30;;;;;;;;;;5051060;28;20032;-73
2022/07/22 04:29:34;;;;;;;25.02;6.75;;;;;;;;;;5058273;28;20044;-73
2022/07/22 04:32:00;;;;;;;28.60;6.53;;;;;;;;;;5052828;28;20100;-75
2022/07/22 04:34:26;;;;;;;39.47;7.97;;;;;;;;;;5051897;28;20382;-74
2022/07/22 04:36:52;;;;;;;17.70;5.63;;;;;;;;;;5045824;28;20032;-70
2022/07/22 04:39:18;;;;;;;19.80;5.75;;;;;;;;;;5053457;28;20051;-71
2022/07/22 04:41:45;;;;;;;15.27;5.75;;;;;;;;;;5055173;28;20037;-70
2022/07/22 04:44:11;;;;;;;22.05;5.50;;;;;;;;;;5053602;28;20024;-73
2022/07/22 04:46:37;;;;;;;24.70;5.90;;;;;;;;;;5052110;28;20032;-73
2022/07/22 04:49:03;;;;;;;21.27;6.05;;;;;;;;;;5056272;28;20100;-71
2022/07/22 04:51:29;;;;;;;14.52;5.60;;;;;;;;;;5058704;28;20519;-71
2022/07/22 04:53:55;;;;;;;27.58;7.55;;;;;;;;;;5051983;28;20037;-71
2022/07/22 04:56:21;;;;;;;30.60;7.80;;;;;;;;;;5057817;28;20573;-71
2022/07/22 04:58:48;;;;;;;18.98;6.80;;;;;;;;;;5050330;28;20036;-71
2022/07/22 05:01:14;;;;;;;11.95;6.13;;;;;;;;;;5051364;28;20112;-71
2022/07/22 05:03:41;;;;;;;22.00;7.35;;;;;;;;;;5051456;28;20029;-71
2022/07/22 05:06:07;;;;;;;11.20;6.10;;;;;;;;;;5050927;28;20524;-69
2022/07/22 05:08:33;;;;;;;13.48;5.95;;;;;;;;;;5051502;28;20130;-71
2022/07/22 05:10:59;;;;;;;16.48;5.68;;;;;;;;;;5051476;28;20113;-75
2022/07/22 05:13:25;;;;;;;12.82;6.18;;;;;;;;;;5051811;28;20521;-75
2022/07/22 05:15:51;;;;;;;13.80;5.45;;;;;;;;;;5051635;28;20498;-70
2022/07/22 05:18:17;;;;;;;14.98;5.13;;;;;;;;;;5051899;28;20033;-71
2022/07/22 05:20:44;;;;;;;16.77;5.40;;;;;;;;;;5054971;28;20029;-70
2022/07/22 05:23:10;;;;;;;11.70;5.70;;;;;;;;;;5049963;28;20103;-76
2022/07/22 05:25:36;;;;;;;14.23;5.20;;;;;;;;;;5063993;28;20030;-77
2022/07/22 05:28:02;;;;;;;17.60;5.53;;;;;;;;;;5059149;28;21893;-79
2022/07/22 05:30:28;;;;;;;21.00;5.85;;;;;;;;;;5044506;28;20040;-67
2022/07/22 05:32:55;;;;;;;16.30;5.85;;;;;;;;;;5060068;28;20085;-75
2022/07/22 05:35:21;;;;;;;13.52;5.72;;;;;;;;;;5053556;28;20083;-75
2022/07/22 05:37:48;;;;;;;17.27;6.07;;;;;;;;;;5056700;28;20132;-74
2022/07/22 05:40:14;;;;;;;10.75;5.60;;;;;;;;;;5054666;28;20031;-74
2022/07/22 05:42:40;;;;;;;16.67;7.53;;;;;;;;;;5054340;28;20017;-73
2022/07/22 05:45:06;;;;;;;33.30;7.47;;;;;;;;;;5053825;28;20033;-72
2022/07/22 05:47:32;;;;;;;12.27;5.95;;;;;;;;;;5052260;28;20060;-70
2022/07/22 05:49:59;;;;;;;12.02;5.40;;;;;;;;;;5057777;28;20038;-72
2022/07/22 05:52:25;;;;;;;12.70;5.40;;;;;;;;;;5052737;28;20021;-71
2022/07/22 05:54:51;;;;;;;14.77;5.55;;;;;;;;;;5057737;28;20024;-71
2022/07/22 05:57:17;;;;;;;13.25;5.72;;;;;;;;;;5054043;28;20051;-71
2022/07/22 05:59:43;;;;;;;12.30;5.45;;;;;;;;;;5057152;28;20033;-70
2022/07/22 06:02:09;;;;;;;16.50;5.25;;;;;;;;;;5053960;28;20025;-70
2022/07/22 06:04:35;;;;;;;11.80;6.13;;;;;;;;;;5052427;28;20779;-69
2022/07/22 06:07:01;;;;;;;11.60;5.65;;;;;;;;;;5058046;28;20052;-78
2022/07/22 06:09:27;;;;;;;14.25;6.90;;;;;;;;;;5054230;28;20068;-73
2022/07/22 06:11:54;;;;;;;9.02;5.20;;;;;;;;;;5054705;28;20072;-74
2022/07/22 06:14:20;;;;;;;9.63;5.72;;;;;;;;;;5054736;28;20090;-72
2022/07/22 06:16:46;;;;;;;19.75;7.22;;;;;;;;;;5054377;28;20024;-72
2022/07/22 06:19:12;;;;;;;13.77;5.45;;;;;;;;;;5055151;28;20413;-72
2022/07/22 06:21:38;;;;;;;15.48;5.50;;;;;;;;;;5053356;28;20053;-70
2022/07/22 06:24:05;;;;;;;11.57;5.70;;;;;;;;;;5059734;28;20021;-70
2022/07/22 06:26:31;;;;;;;9.93;5.47;;;;;;;;;;5062244;28;20059;-73
2022/07/22 06:28:57;;;;;;;13.38;5.50;;;;;;;;;;5057190;28;20017;-73
2022/07/22 06:31:23;;;;;;;13.57;5.38;;;;;;;;;;5052334;28;20558;-71
2022/07/22 06:33:49;;;;;;;18.48;6.80;;;;;;;;;;5036376;28;20119;-70
2022/07/22 06:36:17;;;;;;;16.70;5.80;;;;;;;;;;5055553;28;20021;-74
2022/07/22 06:38:44;;;;;;;13.43;5.93;;;;;;;;;;5056950;28;20120;-74
2022/07/22 06:41:10;;;;;;;13.15;5.90;;;;;;;;;;5053934;28;20470;-73
2022/07/22 06:43:36;;;;;;;9.90;5.78;;;;;;;;;;5051278;28;20029;-73
2022/07/22 06:46:02;;;;;;;20.40;6.40;;;;;;;;;;5057920;28;20474;-76
2022/07/22 06:48:28;;;;;;;12.20;5.80;;;;;;;;;;5055353;28;20063;-74
2022/07/22 06:50:55;;;;;;;16.80;6.15;;;;;;;;;;5059496;28;20508;-75
2022/07/22 06:53:21;;;;;;;11.98;5.03;;;;;;;;;;5061010;28;20029;-72
2022/07/22 06:55:47;;;;;;;9.32;4.95;;;;;;;;;;5054092;28;20024;-70
2022/07/22 06:58:14;;;;;;;10.07;4.30;;;;;;;;;;5028111;28;20855;-75
2022/07/22 07:00:40;;;;;;;8.30;4.05;;;;;;;;;;5055055;28;20355;-74
2022/07/22 07:03:10;;;;;;;8.38;4.05;;;;;;;;;;5061981;28;20017;-72
2022/07/22 07:05:36;;;;;;;9.35;4.40;;;;;;;;;;5033209;28;20033;-73
2022/07/22 07:08:03;;;;;;;6.13;3.88;;;;;;;;;;5052318;28;20020;-75
2022/07/22 07:10:29;;;;;;;7.53;4.50;;;;;;;;;;5051139;28;20082;-77
2022/07/22 07:12:58;;;;;;;14.05;5.38;;;;;;;;;;5058365;28;20503;-77
2022/07/22 07:15:26;;;;;;;9.88;4.90;;;;;;;;;;5056418;28;20075;-79
2022/07/22 07:17:53;;;;;;;12.15;4.60;;;;;;;;;;5052624;28;20082;-75
2022/07/22 07:20:20;;;;;;;12.70;4.60;;;;;;;;;;5048246;28;20057;-76
2022/07/22 07:22:46;;;;;;;36.08;6.38;;;;;;;;;;5053095;28;20017;-72
2022/07/22 07:25:12;;;;;;;14.32;5.07;;;;;;;;;;5052530;28;20021;-72
2022/07/22 07:27:38;;;;;;;9.65;4.50;;;;;;;;;;5048047;28;20482;-73
2022/07/22 07:30:05;;;;;;;10.77;4.90;;;;;;;;;;5050324;28;20108;-71
2022/07/22 07:32:31;;;;;;;13.77;4.63;;;;;;;;;;5055559;28;20104;-76
2022/07/22 07:34:57;;;;;;;9.52;5.00;;;;;;;;;;5056327;28;20103;-72
2022/07/22 07:37:23;;;;;;;10.05;5.20;;;;;;;;;;5065285;28;20017;-74
2022/07/22 07:39:49;;;;;;;8.38;4.78;;;;;;;;;;5050895;28;20033;-74
2022/07/22 07:42:16;;;;;;;14.73;5.38;;;;;;;;;;5053573;28;20036;-73
2022/07/22 07:44:42;;;;;;;7.95;5.20;;;;;;;;;;5049421;28;20558;-71
2022/07/22 07:47:08;;;;;;;21.85;6.40;;;;;;;;;;5052574;28;20125;-70
2022/07/22 07:49:34;;;;;;;14.40;5.90;;;;;;;;;;5051527;28;20017;-71
2022/07/22 07:52:00;;;;;;;19.90;6.63;;;;;;;;;;5052290;28;20491;-73
2022/07/22 07:54:26;;;;;;;19.50;6.30;;;;;;;;;;5051990;28;20483;-71
2022/07/22 07:56:52;;;;;;;16.80;6.50;;;;;;;;;;5051995;28;20049;-70
2022/07/22 07:59:19;;;;;;;20.15;6.25;;;;;;;;;;5051498;28;20037;-71
2022/07/22 08:01:45;;;;;;;14.35;6.65;;;;;;;;;;5051646;28;20071;-72
2022/07/22 08:04:11;;;;;;;22.90;7.97;;;;;;;;;;5051800;28;20071;-71
2022/07/22 08:06:38;;;;;;;15.18;5.88;;;;;;;;;;5051951;28;20027;-71
2022/07/22 08:09:04;;;;;;;22.90;6.40;;;;;;;;;;5051114;28;20028;-70
2022/07/22 08:11:30;;;;;;;19.85;6.18;;;;;;;;;;5054731;28;20028;-71
2022/07/22 08:13:56;;;;;;;14.82;5.65;;;;;;;;;;5051785;28;20060;-71
2022/07/22 08:16:23;;;;;;;14.20;5.15;;;;;;;;;;5051202;28;20524;-69
2022/07/22 08:18:49;;;;;;;13.32;5.20;;;;;;;;;;5051439;28;20052;-71
2022/07/22 08:21:15;;;;;;;13.40;5.35;;;;;;;;;;5050668;28;20105;-71
2022/07/22 08:23:41;;;;;;;14.02;5.10;;;;;;;;;;5051646;28;20466;-71
2022/07/22 08:26:07;;;;;;;17.65;5.30;;;;;;;;;;5051386;28;20031;-71
2022/07/22 08:28:33;;;;;;;14.93;6.32;;;;;;;;;;5051621;28;20498;-69
2022/07/22 08:30:59;;;;;;;14.23;5.40;;;;;;;;;;5051394;28;20033;-71
2022/07/22 08:33:25;;;;;;;15.20;5.28;;;;;;;;;;5049701;28;20545;-69
2022/07/22 08:35:52;;;;;;;19.05;4.97;;;;;;;;;;5048665;28;20029;-70
2022/07/22 08:38:18;;;;;;;18.10;5.15;;;;;;;;;;5052262;28;20124;-70
2022/07/22 08:40:44;;;;;;;12.48;4.38;;;;;;;;;;5054474;28;20152;-68
2022/07/22 08:43:10;;;;;;;16.40;5.10;;;;;;;;;;5056126;28;20033;-70
2022/07/22 08:45:36;;;;;;;13.82;4.40;;;;;;;;;;5056368;28;20480;-75
2022/07/22 08:48:05;;;;;;;15.90;5.15;;;;;;;;;;5049333;28;20102;-78
2022/07/22 08:50:31;;;;;;;15.18;5.07;;;;;;;;;;5030869;28;20087;-71
2022/07/22 08:52:57;;;;;;;11.52;4.70;;;;;;;;;;5057080;28;20039;-70
2022/07/22 08:55:26;;;;;;;11.35;4.70;;;;;;;;;;5057936;28;20562;-70
2022/07/22 08:57:52;;;;;;;14.70;5.10;;;;;;;;;;5047017;28;20048;-72
2022/07/22 09:00:20;;;;;;;18.70;5.95;;;;;;;;;;5052772;28;20041;-68
2022/07/22 09:02:46;;;;;;;30.90;6.00;;;;;;;;;;5050708;28;20021;-69
2022/07/22 09:05:16;;;;;;;19.20;4.90;;;;;;;;;;5048503;28;20120;-71
2022/07/22 09:07:43;;;;;;;16.40;5.10;;;;;;;;;;5058020;28;20025;-69
2022/07/22 09:10:10;;;;;;;17.25;4.80;;;;;;;;;;5047188;28;20380;-76
2022/07/22 09:12:51;;;;;;;12.15;4.53;;;;;;;;;;5054222;28;20028;-69
2022/07/22 09:15:24;;;;;;;12.73;4.30;;;;;;;;;;5044187;28;20075;-78
2022/07/22 09:17:51;;;;;;;11.38;4.13;;;;;;;;;;5051146;28;20099;-68
2022/07/22 09:20:18;;;;;;;14.60;4.30;;;;;;;;;;5052278;28;20506;-67
2022/07/22 09:22:45;;;;;;;8.00;3.70;;;;;;;;;;5061460;28;20107;-70
2022/07/22 09:25:18;;;;;;;13.10;3.95;;;;;;;;;;5064544;28;20076;-68
2022/07/22 09:27:44;;;;;;;13.88;4.70;;;;;;;;;;5055708;28;20075;-67
2022/07/22 09:30:14;;;;;;;17.02;4.40;;;;;;;;;;5055993;28;20016;-69
2022/07/22 09:32:41;;;;;;;14.98;4.63;;;;;;;;;;5060498;28;20017;-68
2022/07/22 09:35:07;;;;;;;15.63;4.07;;;;;;;;;;5058657;28;20390;-67
2022/07/22 09:37:34;;;;;;;9.45;4.18;;;;;;;;;;5064339;28;20026;-67
2022/07/22 09:40:16;;;;;;;16.33;4.60;;;;;;;;;;5055543;28;20117;-66
2022/07/22 09:42:49;;;;;;;9.32;3.30;;;;;;;;;;5057104;28;20086;-66
2022/07/22 09:45:16;;;;;;;7.22;3.40;;;;;;;;;;5060712;28;20044;-66
2022/07/22 09:47:43;;;;;;;8.18;3.80;;;;;;;;;;5056918;28;20389;-66
2022/07/22 09:50:17;;;;;;;18.13;5.13;;;;;;;;;;5066977;28;20107;-66
2022/07/22 09:52:43;;;;;;;15.93;3.80;;;;;;;;;;5061194;28;20512;-66
2022/07/22 09:55:09;;;;;;;10.02;2.92;;;;;;;;;;5065113;28;20052;-65
2022/07/22 09:57:35;;;;;;;5.20;3.00;;;;;;;;;;5066822;28;20132;-66
2022/07/22 10:00:02;;;;;;;22.17;7.95;;;;;;;;;;5059791;28;20474;-65
2022/07/22 10:02:29;;;;;;;28.58;9.27;;;;;;;;;;5057356;28;20039;-66
2022/07/22 10:04:56;;;;;;;24.10;7.55;;;;;;;;;;5054688;28;20025;-66
2022/07/22 10:07:23;;;;;;;7.60;3.17;;;;;;;;;;5062105;28;20026;-65
2022/07/22 10:09:51;;;;;;;25.13;8.02;;;;;;;;;;5056167;28;20827;-65
2022/07/22 10:12:18;;;;;;;24.13;9.52;;;;;;;;;;5064667;28;20043;-66
2022/07/22 10:14:45;;;;;;;52.08;23.58;;;;;;;;;;5053418;28;20108;-65
2022/07/22 10:17:13;;;;;;;12.73;7.53;;;;;;;;;;5045771;28;20027;-67
2022/07/22 10:19:40;;;;;;;5.80;3.08;;;;;;;;;;5050944;28;20425;-66
2022/07/22 10:22:16;;;;;;;9.30;4.05;;;;;;;;;;5057771;28;20530;-65
2022/07/22 10:24:59;;;;;;;9.48;3.30;;;;;;;;;;5052833;28;20109;-65
2022/07/22 10:27:44;;;;;;;11.15;3.60;;;;;;;;;;5058518;28;20488;-68
2022/07/22 10:30:11;;;;;;;10.82;2.90;;;;;;;;;;5059907;28;20095;-67
2022/07/22 10:32:37;;;;;;;12.23;3.00;;;;;;;;;;5059570;28;20059;-68
2022/07/22 10:35:03;;;;;;;6.72;2.80;;;;;;;;;;5056944;28;20025;-69
2022/07/22 10:37:40;;;;;;;4.75;2.85;;;;;;;;;;5061331;28;20036;-70
2022/07/22 10:40:09;;;;;;;5.88;2.95;;;;;;;;;;5062781;28;20047;-79
2022/07/22 10:42:54;;;;;;;6.18;3.00;;;;;;;;;;5058592;28;20016;-72
2022/07/22 10:45:21;;;;;;;6.50;3.20;;;;;;;;;;5058753;28;20105;-80
2022/07/22 10:47:54;;;;;;;7.88;3.10;;;;;;;;;;5067188;28;20024;-75
2022/07/22 10:50:47;;;;;;;8.73;2.90;;;;;;;;;;5055295;28;20033;-74
2022/07/22 10:53:13;;;;;;;4.72;2.60;;;;;;;;;;5049311;28;20120;-66
2022/07/22 10:55:40;;;;;;;6.78;2.70;;;;;;;;;;5056229;28;20029;-68
2022/07/22 10:58:25;;;;;;;5.40;2.60;;;;;;;;;;5051811;28;20057;-68
2022/07/22 11:00:51;;;;;;;6.30;3.00;;;;;;;;;;5045684;28;20059;-69
2022/07/22 11:03:26;;;;;;;5.30;2.70;;;;;;;;;;5050683;28;20033;-69
2022/07/22 11:05:52;;;;;;;6.50;2.70;;;;;;;;;;5053934;28;20390;-81
2022/07/22 11:08:19;;;;;;;5.55;2.80;;;;;;;;;;5060143;28;20033;-76
2022/07/22 11:10:51;;;;;;;12.25;3.17;;;;;;;;;;5061462;28;20029;-73
2022/07/22 11:13:33;;;;;;;9.13;2.58;;;;;;;;;;5053780;28;20035;-73
2022/07/22 11:16:15;;;;;;;5.00;2.50;;;;;;;;;;5061134;28;20099;-73
2022/07/22 11:18:54;;;;;;;4.28;2.80;;;;;;;;;;5065050;28;20033;-77
2022/07/22 11:21:21;;;;;;;3.53;2.60;;;;;;;;;;5041157;28;20031;-68
2022/07/22 11:23:48;;;;;;;5.82;2.47;;;;;;;;;;5053058;28;20032;-69
2022/07/22 11:26:16;;;;;;;5.70;2.60;;;;;;;;;;5049594;28;20382;-69
2022/07/22 11:28:43;;;;;;;8.15;3.38;;;;;;;;;;5064244;28;20039;-71
2022/07/22 11:31:10;;;;;;;8.30;2.95;;;;;;;;;;5061143;28;20020;-69
2022/07/22 11:33:36;;;;;;;6.82;2.67;;;;;;;;;;5052345;28;20059;-72
2022/07/22 11:36:06;;;;;;;5.65;2.63;;;;;;;;;;5064726;28;20020;-67
2022/07/22 11:38:48;;;;;;;11.60;3.00;;;;;;;;;;5056540;28;20044;-76
2022/07/22 11:41:18;;;;;;;5.80;2.30;;;;;;;;;;5057098;28;20017;-79
2022/07/22 11:43:49;;;;;;;8.27;2.70;;;;;;;;;;5050987;28;20560;-71
2022/07/22 11:46:16;;;;;;;5.65;2.67;;;;;;;;;;5048279;28;20036;-68
2022/07/22 11:48:42;;;;;;;4.45;2.47;;;;;;;;;;5061174;28;20440;-67
2022/07/22 11:51:10;;;;;;;4.38;2.63;;;;;;;;;;5057731;28;20033;-80
2022/07/22 11:53:37;;;;;;;6.57;2.63;;;;;;;;;;5051004;28;20366;-83
2022/07/22 11:56:04;;;;;;;6.35;2.70;;;;;;;;;;5063259;28;20063;-75
2022/07/22 11:58:45;;;;;;;5.68;2.60;;;;;;;;;;5053237;28;20043;-74
2022/07/22 12:01:12;;;;;;;6.65;2.92;;;;;;;;;;5052699;28;20028;-68
2022/07/22 12:03:42;;;;;;;6.22;2.60;;;;;;;;;;5051082;28;20124;-68
2022/07/22 12:06:09;;;;;;;8.65;2.88;;;;;;;;;;5052680;28;20620;-70
2022/07/22 12:08:43;;;;;;;8.10;2.88;;;;;;;;;;5061943;28;20028;-67
2022/07/22 12:11:10;;;;;;;3.72;2.40;;;;;;;;;;5062667;28;20020;-78
2022/07/22 12:13:40;;;;;;;5.85;2.50;;;;;;;;;;5050911;28;20058;-76
2022/07/22 12:16:22;;;;;;;5.05;2.60;;;;;;;;;;5053566;28;20100;-76
2022/07/22 12:18:52;;;;;;;5.90;2.70;;;;;;;;;;5063445;28;20038;-76
2022/07/22 12:21:18;;;;;;;6.13;2.92;;;;;;;;;;5061927;28;20039;-71
2022/07/22 12:23:52;;;;;;;6.65;2.88;;;;;;;;;;5053921;28;20032;-70
2022/07/22 12:26:18;;;;;;;8.68;3.10;;;;;;;;;;5055993;28;20025;-67
2022/07/22 12:28:44;;;;;;;5.63;2.80;;;;;;;;;;5059072;28;20523;-67
2022/07/22 12:31:10;;;;;;;6.70;2.60;;;;;;;;;;5056321;28;20017;-67
2022/07/22 12:33:36;;;;;;;6.80;2.40;;;;;;;;;;5054978;28;20025;-69
2022/07/22 12:36:04;;;;;;;4.28;2.53;;;;;;;;;;5061815;28;20027;-70
2022/07/22 12:38:31;;;;;;;9.02;2.85;;;;;;;;;;5048710;28;20045;-69
2022/07/22 12:40:57;;;;;;;5.15;2.45;;;;;;;;;;5051311;28;20363;-69
2022/07/22 12:43:27;;;;;;;9.15;2.88;;;;;;;;;;5050812;28;20036;-71
2022/07/22 12:45:53;;;;;;;14.63;2.95;;;;;;;;;;5050293;28;20100;-69
2022/07/22 12:48:19;;;;;;;6.10;2.50;;;;;;;;;;5050655;28;20032;-68
2022/07/22 12:50:58;;;;;;;9.27;2.95;;;;;;;;;;5049506;28;20386;-68
2022/07/22 12:53:25;;;;;;;6.43;2.58;;;;;;;;;;5048786;28;20060;-69
2022/07/22 12:55:57;;;;;;;6.30;2.72;;;;;;;;;;5051459;28;20028;-69
2022/07/22 12:58:28;;;;;;;8.18;2.90;;;;;;;;;;5050535;28;20061;-70
2022/07/22 13:00:56;;;;;;;5.57;3.00;;;;;;;;;;5048292;28;20045;-71
2022/07/22 13:03:25;;;;;;;17.67;3.30;;;;;;;;;;5051275;28;20037;-69
2022/07/22 13:05:52;;;;;;;5.95;2.75;;;;;;;;;;5052006;28;20116;-69
2022/07/22 13:08:18;;;;;;;6.07;2.70;;;;;;;;;;5052274;28;20679;-67
2022/07/22 13:11:39;;;;;;;;;;;;;;;;;;;;;
2022/07/22 13:14:06;;;;;;;6.68;2.95;;;;;;;;;;4999428;28;20610;-70
2022/07/22 13:16:33;;;;;;;17.92;3.17;;;;;;;;;;4988943;28;20050;-70
2022/07/22 13:18:59;;;;;;;4.93;2.92;;;;;;;;;;5002486;28;20042;-69
2022/07/22 13:21:25;;;;;;;5.38;2.60;;;;;;;;;;4992895;28;20070;-71
2022/07/22 13:23:51;;;;;;;7.93;2.95;;;;;;;;;;4994119;28;20606;-70
2022/07/22 13:26:17;;;;;;;42.78;3.97;;;;;;;;;;4989971;28;20388;-72
2022/07/22 13:28:44;;;;;;;10.52;2.95;;;;;;;;;;4987726;28;20039;-69
2022/07/22 13:31:10;;;;;;;28.05;4.45;;;;;;;;;;5002416;28;20050;-70
2022/07/22 13:33:36;;;;;;;9.50;3.03;;;;;;;;;;4989396;28;20452;-67
2022/07/22 13:36:03;;;;;;;4.20;2.70;;;;;;;;;;5000557;28;20030;-70
2022/07/22 13:38:29;;;;;;;6.28;3.00;;;;;;;;;;4987008;28;20046;-68
2022/07/22 13:40:55;;;;;;;7.50;2.90;;;;;;;;;;4987975;28;20026;-70
2022/07/22 13:43:22;;;;;;;6.43;2.65;;;;;;;;;;4989621;28;20061;-66
2022/07/22 13:45:49;;;;;;;8.18;2.90;;;;;;;;;;4989596;28;20027;-68
2022/07/22 13:48:17;;;;;;;6.80;3.10;;;;;;;;;;5034498;28;20048;-68
2022/07/22 13:50:43;;;;;;;8.07;2.67;;;;;;;;;;5050815;28;20466;-70
2022/07/22 13:53:09;;;;;;;6.30;2.80;;;;;;;;;;5051490;28;20025;-69
2022/07/22 13:55:35;;;;;;;8.15;2.67;;;;;;;;;;5051185;28;20502;-68
2022/07/22 13:58:01;;;;;;;7.50;2.78;;;;;;;;;;5050925;28;20426;-69
2022/07/22 14:00:27;;;;;;;7.80;2.75;;;;;;;;;;5051715;28;20037;-70
2022/07/22 14:02:53;;;;;;;25.85;4.07;;;;;;;;;;5050419;28;20122;-68
2022/07/22 14:05:19;;;;;;;7.93;2.80;;;;;;;;;;5051005;28;20025;-70
2022/07/22 14:07:45;;;;;;;13.25;3.03;;;;;;;;;;5047234;28;20044;-72
2022/07/22 14:10:13;;;;;;;6.15;2.70;;;;;;;;;;5054503;28;20032;-70
2022/07/22 14:12:39;;;;;;;4.32;2.80;;;;;;;;;;5055813;28;20025;-68
2022/07/22 14:15:07;;;;;;;10.02;2.70;;;;;;;;;;5053729;28;20191;-71
2022/07/22 14:17:33;;;;;;;8.30;2.60;;;;;;;;;;5058652;28;20051;-68
2022/07/22 14:19:59;;;;;;;8.10;3.28;;;;;;;;;;5054537;28;20567;-69
2022/07/22 14:22:25;;;;;;;8.38;3.00;;;;;;;;;;5054838;28;20542;-73
2022/07/22 14:24:52;;;;;;;4.90;2.60;;;;;;;;;;5053796;28;20024;-72
2022/07/22 14:27:18;;;;;;;10.38;2.90;;;;;;;;;;5055429;28;20390;-70
2022/07/22 14:29:44;;;;;;;7.40;2.85;;;;;;;;;;5050878;28;20104;-69
2022/07/22 14:32:10;;;;;;;16.30;3.92;;;;;;;;;;5058382;28;20025;-71
2022/07/22 14:34:36;;;;;;;12.38;2.90;;;;;;;;;;5053278;28;20029;-74
2022/07/22 14:37:02;;;;;;;6.70;2.80;;;;;;;;;;5058289;28;20038;-72
2022/07/22 14:39:28;;;;;;;6.00;3.00;;;;;;;;;;5059203;28;20047;-70
2022/07/22 14:41:54;;;;;;;6.93;2.72;;;;;;;;;;5052577;28;20025;-70
2022/07/22 14:44:20;;;;;;;14.10;3.22;;;;;;;;;;5054394;28;20051;-71